Dobrodošli na spletni strani vremenske postaje Senovo. Vse informacije so informativnega značaja, saj vremenska postaja ni del državne mreže meteoroloških postaj. OBVESTILO: Letni količini padavin navedeni na spletni strani je potrebno prišteti 98,1 mm, zaradi izgube podatkov.


Posebna pozornost v zvezi z vremenskimi dogajanji ni potrebna.    Posebna pozornost v zvezi z vremenskimi dogajanji ni potrebna.

Pogled proti Armezu več informacij Pogled proti Armezu


Lisca več informacij Lisca


Radar strel več informacij blitzortung!


Radar padavin več informacij rain snow radar


Obiščite še:

Template documentation
and downloads

And another site



Weather Underground, zgodovina - Tekstovno

Dnevni povzetek za Avgust 25, 2017 Enote:  Angleško    Metrično   Obe
« Predhodni Dan
Naslednji Dan »
Dnevni Tedenski Mesečni Letni Po meri
  Višja: Nižja: Povprečje:
Temperatura: 91.8 °F 56.7 °F 72.5 °F
Točka rosišča: 66.6 °F 54.9 °F 60.6 °F
Vlažnost: 95 % 37 % 71 %
Hitrost vetra: 4.9 mph 0 mph 0.9 mph
Sunki vetra: 9.6 mph - -
Veter:- - SSW
Zračni tlak: 30.2 in 30 in -
Padavine: 0 in    
Historical Graphs
 
 
Tabelarni podarki za Avgust 25, 2017
Čas Temperatura Točka rosišča Zračni tlak Veter Hitrost vetra Sunki vetra Vlažnost Intenziteta padavin (urna)
00:02 61.9 °F 58.3 °F 30.1 in Calm     88 % 0 in
00:08 61.9 °F 58.3 °F 30.1 in Calm     88 % 0 in
00:13 61.7 °F 58.1 °F 30.1 in Calm     88 % 0 in
00:18 61.5 °F 57.9 °F 30.1 in Calm     88 % 0 in
00:23 61.3 °F 57.7 °F 30.1 in Calm     88 % 0 in
00:28 61.3 °F 57.7 °F 30.1 in Calm     88 % 0 in
00:33 61.2 °F 57.6 °F 30.1 in Calm     88 % 0 in
00:38 61.2 °F 57.6 °F 30.1 in Calm     88 % 0 in
00:43 61 °F 57.7 °F 30.1 in Calm     89 % 0 in
00:48 60.8 °F 57.6 °F 30.1 in Calm     89 % 0 in
00:53 60.6 °F 57.4 °F 30.1 in Calm     89 % 0 in
00:58 60.6 °F 57.7 °F 30.1 in Calm     90 % 0 in
01:03 60.4 °F 57.6 °F 30.1 in Calm     90 % 0 in
01:08 60.4 °F 57.6 °F 30.1 in Calm     90 % 0 in
01:13 60.3 °F 57.4 °F 30.1 in Calm     90 % 0 in
01:18 60.3 °F 57.4 °F 30.1 in Calm     90 % 0 in
01:23 60.1 °F 57 °F 30.1 in Calm     90 % 0 in
01:28 60.1 °F 57 °F 30.1 in Calm     90 % 0 in
01:33 59.9 °F 57 °F 30.1 in Calm     90 % 0 in
01:38 59.9 °F 57 °F 30.1 in Calm     90 % 0 in
01:43 59.7 °F 57 °F 30.1 in Calm     91 % 0 in
01:48 59.7 °F 57 °F 30.1 in Calm     91 % 0 in
01:53 59.5 °F 56.8 °F 30.1 in Calm     91 % 0 in
01:58 59.5 °F 56.8 °F 30.1 in Calm     91 % 0 in
02:03 59.5 °F 56.8 °F 30.1 in Calm     91 % 0 in
02:08 59.5 °F 56.8 °F 30.1 in Calm     91 % 0 in
02:13 59.4 °F 56.7 °F 30.1 in Calm     91 % 0 in
02:18 59.4 °F 56.7 °F 30.1 in Calm     91 % 0 in
02:23 59.4 °F 56.7 °F 30.1 in Calm     91 % 0 in
02:28 59.2 °F 56.8 °F 30.1 in Calm     92 % 0 in
02:33 59.2 °F 56.8 °F 30.1 in Calm     92 % 0 in
02:38 59.2 °F 56.8 °F 30.1 in Calm     92 % 0 in
02:43 59 °F 56.7 °F 30.1 in Calm     92 % 0 in
02:48 58.8 °F 56.5 °F 30.1 in Calm     92 % 0 in
02:54 58.8 °F 56.5 °F 30.1 in Calm     92 % 0 in
02:59 58.8 °F 56.5 °F 30.1 in Calm     92 % 0 in
03:04 58.6 °F 56.3 °F 30.1 in Calm     92 % 0 in
03:09 58.5 °F 56.1 °F 30.1 in Calm     92 % 0 in
03:14 58.5 °F 56.1 °F 30.1 in Calm     92 % 0 in
03:19 58.3 °F 55.9 °F 30.1 in Calm     92 % 0 in
03:24 58.3 °F 55.9 °F 30.1 in Calm     92 % 0 in
03:29 58.1 °F 56.1 °F 30.1 in Calm     93 % 0 in
03:34 58.1 °F 56.1 °F 30.1 in Calm     93 % 0 in
03:39 57.9 °F 55.9 °F 30.1 in Calm     93 % 0 in
03:44 57.9 °F 55.9 °F 30.1 in Calm     93 % 0 in
03:46 57.9 °F 55.9 °F 30.1 in Calm     93 % 0 in
03:51 57.7 °F 55.8 °F 30.1 in Calm     93 % 0 in
03:56 57.7 °F 55.8 °F 30.1 in Calm     93 % 0 in
04:01 57.6 °F 55.6 °F 30.1 in Calm     93 % 0 in
04:06 57.6 °F 55.6 °F 30.1 in Calm     93 % 0 in
04:11 57.4 °F 55.4 °F 30.1 in Calm     93 % 0 in
04:16 57.4 °F 55.4 °F 30.1 in Calm     93 % 0 in
04:21 57.2 °F 55.2 °F 30.1 in Calm     93 % 0 in
04:26 57.2 °F 55.2 °F 30.1 in Calm     93 % 0 in
04:31 57.2 °F 55.2 °F 30.1 in Calm     93 % 0 in
04:36 57 °F 55 °F 30.1 in Calm     93 % 0 in
04:41 57 °F 55.2 °F 30.1 in Calm     94 % 0 in
04:46 57 °F 55.2 °F 30.1 in Calm     94 % 0 in
04:51 56.8 °F 54.9 °F 30.1 in Calm     93 % 0 in
04:56 56.8 °F 54.9 °F 30.1 in Calm     93 % 0 in
05:01 56.8 °F 54.9 °F 30.1 in Calm     93 % 0 in
05:06 56.8 °F 55 °F 30.1 in Calm     94 % 0 in
05:11 56.8 °F 55 °F 30.1 in Calm     94 % 0 in
05:16 56.7 °F 55 °F 30.1 in Calm     94 % 0 in
05:21 56.8 °F 55 °F 30.1 in Calm     94 % 0 in
05:26 56.8 °F 55 °F 30.1 in Calm     94 % 0 in
05:31 56.8 °F 55 °F 30.1 in Calm     94 % 0 in
05:36 56.8 °F 55 °F 30.1 in Calm     94 % 0 in
05:41 56.8 °F 55 °F 30.1 in Calm     94 % 0 in
05:47 56.8 °F 55 °F 30.1 in Calm     94 % 0 in
05:52 56.8 °F 55 °F 30.1 in Calm     94 % 0 in
05:57 56.8 °F 55 °F 30.1 in Calm     94 % 0 in
06:02 56.8 °F 55 °F 30.1 in Calm     94 % 0 in
06:07 56.7 °F 55 °F 30.1 in Calm     94 % 0 in
06:12 56.7 °F 55 °F 30.1 in Calm     94 % 0 in
06:17 56.7 °F 55 °F 30.1 in Calm     94 % 0 in
06:22 56.7 °F 55.2 °F 30.1 in Calm     95 % 0 in
06:27 56.8 °F 55.4 °F 30.1 in Calm     95 % 0 in
06:32 56.8 °F 55.4 °F 30.1 in Calm     95 % 0 in
06:37 56.8 °F 55.4 °F 30.1 in Calm     95 % 0 in
06:42 56.8 °F 55.4 °F 30.1 in Calm     95 % 0 in
06:47 56.8 °F 55.4 °F 30.1 in Calm     95 % 0 in
06:52 57 °F 55.6 °F 30.1 in Calm     95 % 0 in
06:57 57 °F 55.6 °F 30.1 in Calm     95 % 0 in
07:02 57.2 °F 55.6 °F 30.1 in Calm     94 % 0 in
07:07 57.4 °F 55.9 °F 30.1 in Calm     95 % 0 in
07:12 57.7 °F 56.3 °F 30.1 in Calm     95 % 0 in
07:13 57.7 °F 56.3 °F 30.1 in Calm     95 % 0 in
07:18 58.1 °F 56.7 °F 30.1 in Calm     95 % 0 in
07:23 58.5 °F 57 °F 30.1 in Calm     95 % 0 in
07:28 58.6 °F 57.2 °F 30.1 in Calm     95 % 0 in
07:33 59.2 °F 57.7 °F 30.1 in Calm     95 % 0 in
07:38 59.4 °F 57.9 °F 30.1 in Calm     95 % 0 in
07:43 59.9 °F 58.5 °F 30.1 in Calm     95 % 0 in
07:48 60.3 °F 58.8 °F 30.1 in Calm     95 % 0 in
07:53 60.8 °F 59.4 °F 30.1 in Calm     95 % 0 in
07:55 61 °F 59.5 °F 30.1 in Calm     95 % 0 in
08:00 61.3 °F 59.9 °F 30.1 in Calm     95 % 0 in
08:05 62.1 °F 60.6 °F 30.2 in Calm     95 % 0 in
08:10 62.6 °F 60.8 °F 30.2 in Calm     94 % 0 in
08:15 63 °F 61.2 °F 30.2 in Calm     94 % 0 in
08:20 63.7 °F 61.9 °F 30.2 in Calm     94 % 0 in
08:25 64.2 °F 62.2 °F 30.2 in Calm     93 % 0 in
08:26 64.4 °F 62.2 °F 30.2 in Calm     93 % 0 in
08:31 64.9 °F 63 °F 30.2 in Calm     93 % 0 in
08:36 65.5 °F 63.1 °F 30.1 in Calm     92 % 0 in
08:41 66 °F 63.7 °F 30.1 in Calm     92 % 0 in
08:46 66.9 °F 64.2 °F 30.1 in Calm     91 % 0 in
08:51 67.6 °F 64.6 °F 30.1 in Calm     90 % 0 in
08:56 68.4 °F 64.8 °F 30.1 in Calm     88 % 0 in
09:01 68.7 °F 64.8 °F 30.1 in Calm     87 % 0 in
09:06 69.4 °F 64.8 °F 30.1 in Calm     85 % 0 in
09:11 70.2 °F 64.8 °F 30.1 in Calm     83 % 0 in
09:16 70.7 °F 64.9 °F 30.1 in Calm     82 % 0 in
09:21 71.4 °F 65.3 °F 30.1 in Calm     81 % 0 in
09:26 71.8 °F 64.6 °F 30.1 in Calm     78 % 0 in
09:31 72.5 °F 65.1 °F 30.1 in Calm     78 % 0 in
09:36 73 °F 65.5 °F 30.1 in Calm     77 % 0 in
09:41 73.6 °F 65.1 °F 30.1 in Calm     75 % 0 in
09:46 73.9 °F 64.8 °F 30.1 in Calm     73 % 0 in
09:51 74.3 °F 64.2 °F 30.1 in Calm     71 % 0 in
09:56 74.8 °F 64.8 °F 30.1 in Calm     71 % 0 in
10:01 75.6 °F 65.1 °F 30.1 in Calm     70 % 0 in
10:06 75.9 °F 64.9 °F 30.1 in SE 0.1 mph 3.1 mph 69 % 0 in
10:11 76.5 °F 65.5 °F 30.1 in SE 1.2 mph 4.9 mph 69 % 0 in
10:16 76.8 °F 64.9 °F 30.1 in ESE 2.1 mph 4.9 mph 67 % 0 in
10:21 77.4 °F 65.5 °F 30.1 in SE 2 mph 4 mph 67 % 0 in
10:26 77.9 °F 65.7 °F 30.1 in ESE 2.2 mph 4.3 mph 66 % 0 in
10:31 78.4 °F 65.7 °F 30.1 in East 1.8 mph 4.3 mph 65 % 0 in
10:36 79 °F 66.2 °F 30.1 in ESE 1.4 mph 3.1 mph 65 % 0 in
10:37 79 °F 65.8 °F 30.1 in SE 1.4 mph 3.1 mph 64 % 0 in
10:42 79.3 °F 65.7 °F 30.1 in SSE 1.8 mph 4.3 mph 63 % 0 in
10:43 79.3 °F 65.1 °F 30.1 in South 2 mph 4.3 mph 62 % 0 in
10:48 79.5 °F 65.5 °F 30.1 in South 2.7 mph 4.3 mph 62 % 0 in
10:53 79.9 °F 64.8 °F 30.1 in SSW 2.8 mph 4.3 mph 60 % 0 in
10:58 80.2 °F 65.7 °F 30.1 in SW 2.1 mph 4.3 mph 61 % 0 in
11:03 80.8 °F 65.7 °F 30.1 in SSE 1.8 mph 3.8 mph 60 % 0 in
11:08 81 °F 65.3 °F 30.1 in ESE 2 mph 3.8 mph 59 % 0 in
11:13 81.5 °F 65.3 °F 30.1 in East 1.9 mph 3.8 mph 58 % 0 in
11:18 81.7 °F 65.5 °F 30.1 in ESE 1.8 mph 3.6 mph 58 % 0 in
11:23 82.2 °F 66 °F 30.1 in ESE 2.1 mph 3.8 mph 58 % 0 in
11:28 82.9 °F 66.6 °F 30.1 in SE 2 mph 4.9 mph 58 % 0 in
11:33 83.1 °F 65.8 °F 30.1 in SSE 2 mph 4.9 mph 56 % 0 in
11:38 83.7 °F 66.4 °F 30.1 in SSE 2.6 mph 5.8 mph 56 % 0 in
11:43 84 °F 65.7 °F 30.1 in SSE 3.3 mph 6.3 mph 54 % 0 in
11:48 84.4 °F 65.8 °F 30.1 in South 3.1 mph 6.3 mph 54 % 0 in
11:53 84.7 °F 65.1 °F 30.1 in SSW 3.1 mph 6.5 mph 52 % 0 in
11:58 85.1 °F 64.9 °F 30.1 in SW 4 mph 7.8 mph 51 % 0 in
12:03 85.5 °F 65.3 °F 30.1 in SW 4.3 mph 7.8 mph 51 % 0 in
12:08 85.8 °F 64.9 °F 30.1 in SW 3.8 mph 5.8 mph 50 % 0 in
12:13 86.4 °F 64.9 °F 30.1 in SSW 3.7 mph 6 mph 49 % 0 in
12:18 86.5 °F 64.6 °F 30.1 in South 3 mph 6 mph 48 % 0 in
12:23 86.7 °F 63.5 °F 30.1 in SW 2.3 mph 4.5 mph 46 % 0 in
12:28 87.1 °F 64.4 °F 30.1 in SW 2.6 mph 5.8 mph 47 % 0 in
12:33 87.4 °F 64 °F 30.1 in SSW 2.7 mph 5.8 mph 46 % 0 in
12:38 87.6 °F 64.2 °F 30.1 in SW 2.5 mph 6 mph 46 % 0 in
12:43 87.6 °F 64.2 °F 30.1 in SW 2.4 mph 6 mph 46 % 0 in
12:49 87.8 °F 63.9 °F 30.1 in WSW 2.4 mph 6 mph 45 % 0 in
12:54 87.6 °F 63 °F 30.1 in SW 3.2 mph 6 mph 44 % 0 in
12:59 88 °F 63.3 °F 30.1 in SSW 3.8 mph 7.8 mph 44 % 0 in
13:04 88.7 °F 64 °F 30.1 in SSW 4.3 mph 7.8 mph 44 % 0 in
13:09 88.7 °F 63.3 °F 30.1 in SSW 4.9 mph 7.8 mph 43 % 0 in
13:14 89.1 °F 63.7 °F 30.1 in SSW 4.2 mph 9.6 mph 43 % 0 in
13:19 88.9 °F 62.8 °F 30.1 in WSW 3.4 mph 9.6 mph 42 % 0 in
13:24 89.1 °F 63 °F 30.1 in West 3.6 mph 7.4 mph 42 % 0 in
13:29 89.2 °F 63.1 °F 30.1 in West 3.3 mph 6.3 mph 42 % 0 in
13:34 89.2 °F 61.9 °F 30.1 in South 3.2 mph 7.2 mph 40 % 0 in
13:39 89.1 °F 62.2 °F 30.1 in WSW 3.5 mph 7.2 mph 41 % 0 in
13:44 88.9 °F 61.3 °F 30.1 in West 3 mph 5.4 mph 40 % 0 in
13:49 88.5 °F 61.2 °F 30.1 in West 2.9 mph 5.4 mph 40 % 0 in
13:54 88 °F 60.6 °F 30.1 in West 2.4 mph 4.9 mph 40 % 0 in
13:59 88.3 °F 61 °F 30.1 in North 1.9 mph 4 mph 40 % 0 in
14:04 88.7 °F 61.3 °F 30.1 in North 2.4 mph 5.6 mph 40 % 0 in
14:09 88.5 °F 61.2 °F 30.1 in WSW 3.2 mph 7.8 mph 40 % 0 in
14:14 88.7 °F 61.3 °F 30.1 in WSW 4.2 mph 7.8 mph 40 % 0 in
14:19 88.9 °F 60.6 °F 30.1 in WSW 3.5 mph 7.6 mph 39 % 0 in
14:24 88.9 °F 60.6 °F 30.1 in WSW 2.9 mph 7.4 mph 39 % 0 in
14:29 89.2 °F 61 °F 30.1 in WSW 3.4 mph 6 mph 39 % 0 in
14:34 89.6 °F 61.3 °F 30.1 in SW 3.2 mph 6 mph 39 % 0 in
14:39 90.1 °F 61.9 °F 30.1 in SSW 3.1 mph 5.8 mph 39 % 0 in
14:44 90.1 °F 61.9 °F 30.1 in SSW 2.8 mph 5.8 mph 39 % 0 in
14:49 90.1 °F 61.9 °F 30.1 in West 2.3 mph 5.6 mph 39 % 0 in
14:54 90.1 °F 61.9 °F 30.1 in West 2.3 mph 4.3 mph 39 % 0 in
14:59 90.1 °F 61.2 °F 30.1 in West 2.9 mph 5.8 mph 38 % 0 in
15:04 90.5 °F 62.2 °F 30.1 in West 3.6 mph 6 mph 39 % 0 in
15:09 90.7 °F 61.5 °F 30.1 in SW 3.8 mph 6.3 mph 38 % 0 in
15:14 90.9 °F 61.7 °F 30.1 in SSW 3.7 mph 6.3 mph 38 % 0 in
15:19 90.7 °F 61.5 °F 30.1 in South 2.4 mph 5.4 mph 38 % 0 in
15:24 90.7 °F 61.5 °F 30.1 in SSE 1.6 mph 5.4 mph 38 % 0 in
15:29 90.7 °F 61.5 °F 30.1 in WSW 1.5 mph 3.4 mph 38 % 0 in
15:34 90.7 °F 61.5 °F 30.1 in SSE 2 mph 8.7 mph 38 % 0 in
15:39 90.7 °F 61.5 °F 30.1 in SE 2.7 mph 8.7 mph 38 % 0 in
15:44 91 °F 61.9 °F 30.1 in SE 3.4 mph 6 mph 38 % 0 in
15:49 91.2 °F 62.1 °F 30.1 in South 3.3 mph 6 mph 38 % 0 in
15:54 91.2 °F 62.1 °F 30.1 in SSE 3.1 mph 7.2 mph 38 % 0 in
15:59 91 °F 61.9 °F 30.1 in SE 3.9 mph 8.5 mph 38 % 0 in
16:04 91.2 °F 62.1 °F 30 in SSE 3.7 mph 8.5 mph 38 % 0 in
16:09 91.2 °F 62.1 °F 30 in SSW 2.4 mph 6 mph 38 % 0 in
16:14 91.2 °F 62.1 °F 30 in SW 2.8 mph 5.6 mph 38 % 0 in
16:19 91.4 °F 62.2 °F 30 in SW 2.6 mph 5.6 mph 38 % 0 in
16:24 91.4 °F 61.5 °F 30 in SE 2.2 mph 4.9 mph 37 % 0 in
16:29 91.6 °F 61.5 °F 30 in SSE 2.5 mph 6 mph 37 % 0 in
16:34 91.8 °F 62.4 °F 30 in SSW 1.9 mph 6 mph 38 % 0 in
16:39 91.8 °F 61.9 °F 30 in SSE 1.9 mph 5.8 mph 37 % 0 in
16:44 91.8 °F 61.9 °F 30 in SSE 1.6 mph 5.8 mph 37 % 0 in
16:49 91.8 °F 61.9 °F 30 in SSE 1.7 mph 4 mph 37 % 0 in
16:54 91.4 °F 61.5 °F 30 in SE 2.8 mph 5.6 mph 37 % 0 in
16:59 91.4 °F 61.5 °F 30 in South 3.4 mph 5.6 mph 37 % 0 in
17:04 91.6 °F 61.5 °F 30 in SW 2.7 mph 5.6 mph 37 % 0 in
17:09 91.2 °F 61.3 °F 30 in SW 2.7 mph 5.6 mph 37 % 0 in
17:14 91.4 °F 61.5 °F 30 in SW 3.8 mph 6 mph 37 % 0 in
17:19 91.2 °F 61.3 °F 30 in SW 2.9 mph 6 mph 37 % 0 in
17:24 91.2 °F 61.3 °F 30 in SSW 2 mph 5.4 mph 37 % 0 in
17:29 91.4 °F 61.5 °F 30 in South 1.9 mph 5.4 mph 37 % 0 in
17:32 91.2 °F 62.1 °F 30.1 in South 1.5 mph 5.4 mph 38 % 0 in
17:37 91 °F 61.9 °F 30.1 in West 1 mph 3.6 mph 38 % 0 in
17:42 90.9 °F 61.7 °F 30.1 in WSW 1.5 mph 3.6 mph 38 % 0 in
17:47 90.7 °F 61.5 °F 30.1 in SW 1.8 mph 3.1 mph 38 % 0 in
17:52 90.1 °F 61.9 °F 30.1 in SW 1.3 mph 3.1 mph 39 % 0 in
17:57 89.4 °F 61.2 °F 30.1 in SW 1.2 mph 2.9 mph 39 % 0 in
18:02 88.5 °F 61.2 °F 30.1 in SW 1.8 mph 2.9 mph 40 % 0 in
18:07 87.6 °F 61.7 °F 30.1 in SW 1.3 mph 2.5 mph 42 % 0 in
18:12 87.1 °F 61.2 °F 30.1 in SW 1 mph 2.5 mph 42 % 0 in
18:17 86 °F 61.5 °F 30.1 in SW 0.5 mph 2 mph 44 % 0 in
18:22 85.1 °F 61.3 °F 30.1 in Calm     45 % 0 in
18:27 84.4 °F 60.6 °F 30.1 in Calm     45 % 0 in
18:32 83.7 °F 61.3 °F 30.1 in NW 0.2 mph 1.6 mph 47 % 0 in
18:37 82.9 °F 61.2 °F 30.1 in NW 0.4 mph 1.6 mph 48 % 0 in
18:42 82.4 °F 61.3 °F 30.1 in NNW 0.2 mph 1.3 mph 49 % 0 in
18:47 81.7 °F 61.9 °F 30.1 in NNE 0.1 mph 2 mph 51 % 0 in
18:52 81.1 °F 62.4 °F 30.1 in NNE 0.3 mph 2.2 mph 53 % 0 in
18:57 80.6 °F 62.4 °F 30.1 in NNE 0.1 mph 2.2 mph 54 % 0 in
19:02 80.1 °F 62.4 °F 30.1 in NNW 0.6 mph 2.9 mph 55 % 0 in
19:07 79.3 °F 62.8 °F 30.1 in NW 0.7 mph 2.9 mph 57 % 0 in
19:12 79 °F 63.3 °F 30.1 in NW 0.3 mph 2.2 mph 59 % 0 in
19:17 78.6 °F 63.7 °F 30.1 in North 0.1 mph 1.3 mph 60 % 0 in
19:21 78.3 °F 63.1 °F 30.1 in NNW 0.8 mph 4 mph 60 % 0 in
19:26 77.7 °F 63.1 °F 30.1 in NNW 1.1 mph 4 mph 61 % 0 in
19:31 77.4 °F 63 °F 30.1 in NNW 0.4 mph 2.9 mph 61 % 0 in
19:36 76.8 °F 63.3 °F 30.1 in NE 0.1 mph 2 mph 63 % 0 in
19:41 76.5 °F 63.3 °F 30.1 in NE 0.2 mph 2 mph 64 % 0 in
19:46 76.1 °F 63 °F 30.1 in WNW 0.3 mph 2.5 mph 64 % 0 in
19:51 75.7 °F 63.7 °F 30 in WNW 0.7 mph 2.9 mph 66 % 0 in
19:56 75.2 °F 63.5 °F 30 in WNW 1 mph 2.9 mph 67 % 0 in
20:01 74.7 °F 63.3 °F 30 in WNW 0.6 mph 2.9 mph 68 % 0 in
20:06 74.3 °F 63.5 °F 30.1 in Calm     69 % 0 in
20:11 73.8 °F 63 °F 30.1 in Calm     69 % 0 in
20:16 73.4 °F 62.6 °F 30.1 in Calm     69 % 0 in
20:21 73.2 °F 63.1 °F 30.1 in Calm     71 % 0 in
20:26 72.9 °F 62.4 °F 30.1 in Calm     70 % 0 in
20:31 72.5 °F 63 °F 30.1 in Calm     72 % 0 in
20:36 72.3 °F 63.1 °F 30.1 in Calm     73 % 0 in
20:41 72 °F 62.4 °F 30.1 in Calm     72 % 0 in
20:46 71.6 °F 63 °F 30.1 in Calm     74 % 0 in
20:51 71.4 °F 63.1 °F 30.1 in Calm     75 % 0 in
20:56 71.2 °F 63 °F 30.1 in Calm   1.3 mph 75 % 0 in
21:01 71.1 °F 62.4 °F 30.1 in WSW 0.7 mph 2.2 mph 74 % 0 in
21:06 70.7 °F 62.8 °F 30.1 in West 1.1 mph 2.7 mph 76 % 0 in
21:11 70.5 °F 62.2 °F 30.1 in NNW 0.4 mph 2.7 mph 75 % 0 in
21:16 70.2 °F 62.2 °F 30.1 in Calm     76 % 0 in
21:21 70 °F 62.1 °F 30.1 in Calm   2.5 mph 76 % 0 in
21:26 69.8 °F 62.2 °F 30.1 in NNW 0.8 mph 2.5 mph 77 % 0 in
21:31 69.6 °F 62.4 °F 30.1 in NNW 0.9 mph 2.5 mph 78 % 0 in
21:36 69.4 °F 62.2 °F 30.1 in NNW 0.1 mph 1.3 mph 78 % 0 in
21:41 69.1 °F 62.2 °F 30.1 in Calm   1.3 mph 79 % 0 in
21:46 68.9 °F 62.1 °F 30.1 in Calm   1.3 mph 79 % 0 in
21:51 68.7 °F 61.9 °F 30.1 in Calm     79 % 0 in
21:57 68.5 °F 61.9 °F 30.1 in Calm     79 % 0 in
22:02 68.4 °F 61.5 °F 30.1 in Calm     79 % 0 in
22:07 68 °F 61.5 °F 30.1 in Calm     80 % 0 in
22:11 67.8 °F 61.3 °F 30.1 in NNW 0.1 mph 1.3 mph 80 % 0 in
22:16 67.6 °F 61.5 °F 30.1 in NNW 0.1 mph 1.3 mph 81 % 0 in
22:21 67.5 °F 61.3 °F 30.1 in Calm     81 % 0 in
22:26 67.3 °F 61.2 °F 30.1 in Calm     81 % 0 in
22:31 67.1 °F 61.3 °F 30.1 in Calm     82 % 0 in
22:37 66.9 °F 61.2 °F 30.1 in Calm     82 % 0 in
22:42 66.7 °F 61.2 °F 30.1 in Calm     82 % 0 in
22:47 66.6 °F 61 °F 30.1 in Calm     82 % 0 in
22:52 66.4 °F 60.6 °F 30.1 in Calm     82 % 0 in
22:57 66.4 °F 61.2 °F 30.1 in Calm     83 % 0 in
23:02 66.2 °F 60.4 °F 30.1 in Calm     82 % 0 in
23:07 65.8 °F 61 °F 30.1 in Calm     84 % 0 in
23:12 65.8 °F 61.2 °F 30.1 in Calm     85 % 0 in
23:17 65.7 °F 60.6 °F 30.1 in Calm     84 % 0 in
23:22 65.5 °F 60.8 °F 30.1 in Calm     85 % 0 in
23:27 65.3 °F 60.6 °F 30.1 in Calm     85 % 0 in
23:32 65.3 °F 60.6 °F 30.1 in Calm     85 % 0 in
23:37 65.1 °F 60.4 °F 30.1 in Calm     85 % 0 in
23:42 64.9 °F 60.6 °F 30.1 in Calm     86 % 0 in
23:47 64.8 °F 60.4 °F 30.1 in Calm     86 % 0 in
23:52 64.6 °F 60.3 °F 30.1 in NNW 0.2 mph 2 mph 86 % 0 in
23:57 64.6 °F 60.6 °F 30.1 in NNW 0.2 mph 2 mph 87 % 0 in
Vremenska postaja Senovo
Podatki zbrani iz Weather Underground - 3 mb

Script developed by  Jim McMurry - jmcmurry@mwt.net Adapted for the template by  Wim van der Kuil - Leuven-Template.eu

Vremenski podatki so objavljeni na:

WeatherCloud

Weather Underground

AWEKAS

HAMweather, WeatherForYou, PWS Weather

MapView

Geostik

Slovenia weather network

Oprema, ki se uporablja:

Vremenski program
Cumulus

Cumulus